Time;durP1;ratioP1;P1;durP2;ratioP2;P2;SDS_P1;SDS_P2;PMS_P1;PMS_P2;Temp;Humidity;BMP_temperature;BMP_pressure;BME280_temperature;BME280_humidity;BME280_pressure;Samples;Min_cycle;Max_cycle;Signal;HPM_P1;HPM_P2
2021/10/22 00:01:18;;;;;;;;;;;23.70;34.10;;;;;;484570;246;2124;-72
2021/10/22 00:03:20;;;;;;;;;;;23.70;34.10;;;;;;484614;246;991;-72
2021/10/22 00:05:21;;;;;;;;;;;23.60;34.30;;;;;;484625;246;1197;-72
2021/10/22 00:07:22;;;;;;;;;;;23.60;34.40;;;;;;484483;246;1206;-72
2021/10/22 00:09:23;;;;;;;;;;;23.50;34.40;;;;;;484569;246;970;-72
2021/10/22 00:11:25;;;;;;;;;;;23.50;34.50;;;;;;484549;246;1170;-72
2021/10/22 00:13:26;;;;;;;;;;;23.40;34.80;;;;;;484536;246;962;-72
2021/10/22 00:15:28;;;;;;;;;;;23.40;34.90;;;;;;484580;246;1205;-72
2021/10/22 00:17:29;;;;;;;;;;;23.40;35.00;;;;;;484464;246;1054;-72
2021/10/22 00:19:32;;;;;;;;;;;23.30;35.00;;;;;;484653;246;1168;-72
2021/10/22 00:21:32;;;;;;;;;;;23.30;35.20;;;;;;484347;244;2124;-72
2021/10/22 00:23:33;;;;;;;;;;;23.20;35.50;;;;;;484507;246;965;-72
2021/10/22 00:25:34;;;;;;;;;;;23.30;35.40;;;;;;484568;246;1079;-72
2021/10/22 00:27:36;;;;;;;;;;;23.30;35.50;;;;;;484570;246;1052;-72
2021/10/22 00:29:37;;;;;;;;;;;23.30;35.60;;;;;;484600;246;1001;-72
2021/10/22 00:31:38;;;;;;;;;;;23.20;35.70;;;;;;484515;246;1288;-72
2021/10/22 00:33:40;;;;;;;;;;;23.20;35.80;;;;;;484560;246;1101;-72
2021/10/22 00:35:41;;;;;;;;;;;23.10;36.20;;;;;;484620;246;1073;-72
2021/10/22 00:37:43;;;;;;;;;;;22.80;36.60;;;;;;484466;246;1077;-72
2021/10/22 00:39:45;;;;;;;;;;;22.90;36.60;;;;;;484653;246;930;-72
2021/10/22 00:41:46;;;;;;;;;;;22.80;36.80;;;;;;484517;246;2136;-72
2021/10/22 00:43:47;;;;;;;;;;;22.90;36.80;;;;;;484585;246;1236;-72
2021/10/22 00:45:48;;;;;;;;;;;22.90;36.90;;;;;;484599;246;955;-72
2021/10/22 00:47:50;;;;;;;;;;;23.00;36.90;;;;;;484519;246;1059;-72
2021/10/22 00:49:51;;;;;;;;;;;23.10;36.80;;;;;;484678;246;1162;-72
2021/10/22 00:51:53;;;;;;;;;;;23.10;36.80;;;;;;484546;246;1074;-72
2021/10/22 00:53:54;;;;;;;;;;;22.90;36.90;;;;;;484485;246;1065;-72
2021/10/22 00:55:56;;;;;;;;;;;23.20;36.70;;;;;;484582;246;1142;-72
2021/10/22 00:57:57;;;;;;;;;;;23.20;36.70;;;;;;484462;246;979;-72
2021/10/22 00:59:58;;;;;;;;;;;23.40;36.40;;;;;;484593;246;1039;-72
2021/10/22 01:02:00;;;;;;;;;;;23.50;36.50;;;;;;484450;246;2245;-72
2021/10/22 01:04:01;;;;;;;;;;;23.50;36.40;;;;;;484609;246;966;-72
2021/10/22 01:06:03;;;;;;;;;;;23.50;36.30;;;;;;484535;246;1280;-72
2021/10/22 01:08:04;;;;;;;;;;;23.20;36.80;;;;;;484460;246;1065;-72
2021/10/22 01:10:05;;;;;;;;;;;23.30;37.00;;;;;;484550;246;1125;-72
2021/10/22 01:12:06;;;;;;;;;;;23.20;36.80;;;;;;484469;246;1077;-72
2021/10/22 01:14:08;;;;;;;;;;;23.30;37.10;;;;;;484536;246;998;-72
2021/10/22 01:16:09;;;;;;;;;;;23.30;37.00;;;;;;484537;246;1177;-72
2021/10/22 01:18:10;;;;;;;;;;;23.30;37.00;;;;;;484505;246;1208;-72
2021/10/22 01:20:12;;;;;;;;;;;23.40;37.00;;;;;;484538;246;1164;-72
2021/10/22 01:22:14;;;;;;;;;;;23.60;36.90;;;;;;484504;246;2193;-72
2021/10/22 01:24:14;;;;;;;;;;;23.30;37.00;;;;;;484564;246;978;-72
2021/10/22 01:26:17;;;;;;;;;;;23.30;37.20;;;;;;484578;246;1152;-72
2021/10/22 01:28:17;;;;;;;;;;;23.40;37.10;;;;;;484501;246;1471;-72
2021/10/22 01:30:18;;;;;;;;;;;23.60;36.80;;;;;;484558;246;1132;-72
2021/10/22 01:32:20;;;;;;;;;;;23.50;36.90;;;;;;484456;246;1195;-72
2021/10/22 01:34:21;;;;;;;;;;;23.70;37.00;;;;;;484518;246;965;-72
2021/10/22 01:36:23;;;;;;;;;;;23.90;36.70;;;;;;484527;246;1154;-72
2021/10/22 01:38:25;;;;;;;;;;;24.00;36.40;;;;;;484628;246;1125;-72
2021/10/22 01:40:25;;;;;;;;;;;23.80;36.90;;;;;;484642;246;1392;-73
2021/10/22 01:42:27;;;;;;;;;;;23.80;36.90;;;;;;484546;246;2203;-73
2021/10/22 01:44:28;;;;;;;;;;;23.70;37.10;;;;;;484607;246;1090;-73
2021/10/22 01:46:29;;;;;;;;;;;23.80;37.00;;;;;;484594;246;1145;-73
2021/10/22 01:48:31;;;;;;;;;;;23.80;37.10;;;;;;484607;246;967;-73
2021/10/22 01:50:32;;;;;;;;;;;23.80;36.90;;;;;;484596;246;1172;-73
2021/10/22 01:52:33;;;;;;;;;;;24.00;36.80;;;;;;484545;246;1067;-73
2021/10/22 01:54:35;;;;;;;;;;;23.90;36.90;;;;;;484594;246;927;-73
2021/10/22 01:56:36;;;;;;;;;;;24.00;36.80;;;;;;484558;246;1161;-72
2021/10/22 01:58:37;;;;;;;;;;;24.00;37.00;;;;;;484506;241;1083;-72
2021/10/22 02:00:39;;;;;;;;;;;24.20;36.70;;;;;;484603;246;1059;-72
2021/10/22 02:02:40;;;;;;;;;;;24.10;36.70;;;;;;484512;246;2190;-72
2021/10/22 02:04:41;;;;;;;;;;;24.30;36.70;;;;;;484583;246;1019;-72
2021/10/22 02:06:43;;;;;;;;;;;24.40;36.40;;;;;;484596;246;1158;-73
2021/10/22 02:08:44;;;;;;;;;;;24.30;36.70;;;;;;484637;246;1189;-73
2021/10/22 02:10:45;;;;;;;;;;;24.10;36.90;;;;;;484610;246;961;-73
2021/10/22 02:12:47;;;;;;;;;;;24.10;37.10;;;;;;484512;246;1126;-73
2021/10/22 02:14:48;;;;;;;;;;;24.00;37.30;;;;;;484573;246;1003;-73
2021/10/22 02:16:49;;;;;;;;;;;24.30;36.90;;;;;;484599;246;985;-73
2021/10/22 02:18:51;;;;;;;;;;;24.30;36.90;;;;;;484667;246;1034;-73
2021/10/22 02:20:52;;;;;;;;;;;24.10;37.00;;;;;;484606;246;1148;-73
2021/10/22 02:22:53;;;;;;;;;;;24.10;37.20;;;;;;484609;246;2128;-73
2021/10/22 02:24:55;;;;;;;;;;;24.10;37.30;;;;;;484625;246;1066;-73
2021/10/22 02:26:56;;;;;;;;;;;24.10;37.30;;;;;;484606;246;1195;-72
2021/10/22 02:28:57;;;;;;;;;;;24.10;37.40;;;;;;484540;246;1098;-73
2021/10/22 02:30:59;;;;;;;;;;;24.30;37.20;;;;;;484551;241;1088;-73
2021/10/22 02:33:00;;;;;;;;;;;24.20;37.20;;;;;;484446;246;1277;-73
2021/10/22 02:35:01;;;;;;;;;;;24.50;36.90;;;;;;484623;246;977;-73
2021/10/22 02:37:03;;;;;;;;;;;24.60;36.60;;;;;;484546;246;1260;-73
2021/10/22 02:39:04;;;;;;;;;;;24.60;36.60;;;;;;484602;246;1038;-73
2021/10/22 02:41:05;;;;;;;;;;;24.60;36.60;;;;;;484555;246;1111;-73
2021/10/22 02:43:07;;;;;;;;;;;24.80;36.50;;;;;;484451;246;2176;-73
2021/10/22 02:45:08;;;;;;;;;;;24.70;36.50;;;;;;484598;246;977;-73
2021/10/22 02:47:11;;;;;;;;;;;24.70;36.50;;;;;;484603;246;969;-73
2021/10/22 02:49:12;;;;;;;;;;;24.80;36.50;;;;;;484664;246;1051;-73
2021/10/22 02:51:13;;;;;;;;;;;24.70;36.60;;;;;;484598;246;1196;-73
2021/10/22 02:53:15;;;;;;;;;;;24.60;36.80;;;;;;484588;246;988;-73
2021/10/22 02:55:16;;;;;;;;;;;24.70;36.60;;;;;;484613;246;974;-73
2021/10/22 02:57:17;;;;;;;;;;;24.80;36.60;;;;;;484442;246;1207;-73
2021/10/22 02:59:19;;;;;;;;;;;24.80;36.60;;;;;;484522;246;944;-73
2021/10/22 03:01:20;;;;;;;;;;;24.70;36.60;;;;;;484582;246;1331;-73
2021/10/22 03:03:22;;;;;;;;;;;24.80;36.40;;;;;;484663;246;2183;-73
2021/10/22 03:05:24;;;;;;;;;;;24.80;36.40;;;;;;484423;246;964;-73
2021/10/22 03:07:25;;;;;;;;;;;24.80;36.40;;;;;;484564;246;1172;-73
2021/10/22 03:09:26;;;;;;;;;;;24.80;36.40;;;;;;484576;246;963;-72
2021/10/22 03:11:28;;;;;;;;;;;24.70;36.50;;;;;;484546;246;1400;-73
2021/10/22 03:13:29;;;;;;;;;;;24.70;36.50;;;;;;484599;246;1086;-72
2021/10/22 03:15:30;;;;;;;;;;;24.70;36.60;;;;;;484595;246;1315;-73
2021/10/22 03:17:32;;;;;;;;;;;24.60;36.60;;;;;;484530;246;1153;-73
2021/10/22 03:19:33;;;;;;;;;;;24.60;36.50;;;;;;484568;246;1061;-73
2021/10/22 03:21:35;;;;;;;;;;;24.70;36.40;;;;;;484549;246;1193;-73
2021/10/22 03:23:36;;;;;;;;;;;24.70;36.30;;;;;;484567;246;2200;-73
2021/10/22 03:25:37;;;;;;;;;;;24.70;36.30;;;;;;484569;246;1175;-73
2021/10/22 03:27:39;;;;;;;;;;;24.70;36.30;;;;;;484491;246;1107;-72
2021/10/22 03:29:40;;;;;;;;;;;24.70;36.30;;;;;;484494;246;1056;-72
2021/10/22 03:31:41;;;;;;;;;;;24.70;36.20;;;;;;484474;246;1270;-72
2021/10/22 03:33:43;;;;;;;;;;;24.70;36.20;;;;;;484546;246;953;-72
2021/10/22 03:35:44;;;;;;;;;;;24.70;36.20;;;;;;484529;246;1086;-72
2021/10/22 03:37:45;;;;;;;;;;;24.70;36.10;;;;;;484558;246;1141;-72
2021/10/22 03:39:47;;;;;;;;;;;24.40;36.40;;;;;;484614;246;994;-72
2021/10/22 03:41:48;;;;;;;;;;;24.60;36.30;;;;;;484604;246;1172;-73
2021/10/22 03:43:49;;;;;;;;;;;24.50;36.40;;;;;;484458;246;2190;-73
2021/10/22 03:45:51;;;;;;;;;;;24.60;36.40;;;;;;484607;246;969;-73
2021/10/22 03:47:52;;;;;;;;;;;24.50;36.40;;;;;;484590;246;1215;-73
2021/10/22 03:49:53;;;;;;;;;;;24.40;36.50;;;;;;484602;246;1296;-73
2021/10/22 03:51:55;;;;;;;;;;;24.40;36.30;;;;;;484521;246;1068;-73
2021/10/22 03:53:56;;;;;;;;;;;24.40;36.30;;;;;;484653;246;1081;-73
2021/10/22 03:55:57;;;;;;;;;;;24.40;36.30;;;;;;484492;246;1091;-73
2021/10/22 03:57:59;;;;;;;;;;;24.40;36.20;;;;;;484614;246;1259;-73
2021/10/22 04:00:01;;;;;;;;;;;24.50;36.00;;;;;;484534;246;954;-72
2021/10/22 04:02:01;;;;;;;;;;;24.50;36.00;;;;;;484546;245;1343;-73
2021/10/22 04:04:03;;;;;;;;;;;24.40;36.00;;;;;;484579;246;2183;-73
2021/10/22 04:06:04;;;;;;;;;;;24.50;35.90;;;;;;484451;246;1155;-73
2021/10/22 04:08:05;;;;;;;;;;;24.50;36.00;;;;;;484630;246;1177;-73
2021/10/22 04:10:07;;;;;;;;;;;24.40;35.80;;;;;;484592;246;978;-73
2021/10/22 04:12:08;;;;;;;;;;;24.40;35.90;;;;;;484488;246;1240;-72
2021/10/22 04:14:10;;;;;;;;;;;24.30;35.90;;;;;;484428;246;981;-73
2021/10/22 04:16:11;;;;;;;;;;;24.40;35.90;;;;;;484494;243;1153;-73
2021/10/22 04:18:12;;;;;;;;;;;24.50;35.60;;;;;;484510;246;1104;-73
2021/10/22 04:20:14;;;;;;;;;;;24.40;35.80;;;;;;484454;246;971;-73
2021/10/22 04:22:15;;;;;;;;;;;24.40;35.70;;;;;;484436;246;1208;-73
2021/10/22 04:24:18;;;;;;;;;;;24.50;35.50;;;;;;484527;246;2191;-73
2021/10/22 04:26:18;;;;;;;;;;;24.40;35.70;;;;;;484327;246;1474;-73
2021/10/22 04:28:19;;;;;;;;;;;24.40;35.50;;;;;;484385;246;1126;-73
2021/10/22 04:30:20;;;;;;;;;;;24.60;35.40;;;;;;484386;246;973;-73
2021/10/22 04:32:21;;;;;;;;;;;24.60;35.30;;;;;;484428;246;1199;-73
2021/10/22 04:34:26;;;;;;;;;;;24.50;35.40;;;;;;484400;246;1095;-73
2021/10/22 04:36:25;;;;;;;;;;;24.60;35.30;;;;;;484225;246;1381;-73
2021/10/22 04:40:45;;;;;;;;;;;24.40;35.50;;;;;;484235;246;1362;-73
2021/10/22 04:42:47;;;;;;;;;;;24.30;35.60;;;;;;484377;246;2112;-73
2021/10/22 04:44:48;;;;;;;;;;;24.40;35.40;;;;;;484430;246;944;-73
2021/10/22 04:46:49;;;;;;;;;;;24.40;35.40;;;;;;484385;246;1220;-73
2021/10/22 04:48:51;;;;;;;;;;;24.30;35.50;;;;;;484399;246;1015;-73
2021/10/22 04:50:52;;;;;;;;;;;24.30;35.40;;;;;;484400;246;960;-73
2021/10/22 04:52:54;;;;;;;;;;;24.40;35.40;;;;;;484296;246;1205;-73
2021/10/22 04:54:55;;;;;;;;;;;24.40;35.50;;;;;;484283;246;955;-73
2021/10/22 04:56:56;;;;;;;;;;;24.30;35.40;;;;;;484159;246;1219;-72
2021/10/22 04:58:58;;;;;;;;;;;24.40;35.30;;;;;;484339;246;1044;-73
2021/10/22 05:00:59;;;;;;;;;;;24.40;35.20;;;;;;484223;246;1229;-72
2021/10/22 05:03:00;;;;;;;;;;;24.30;35.40;;;;;;484242;246;2187;-72
2021/10/22 05:05:02;;;;;;;;;;;24.40;35.30;;;;;;484317;246;972;-72
2021/10/22 05:07:03;;;;;;;;;;;24.50;35.10;;;;;;484301;246;1219;-72
2021/10/22 05:09:04;;;;;;;;;;;24.40;35.30;;;;;;484335;246;997;-72
2021/10/22 05:11:06;;;;;;;;;;;24.30;35.30;;;;;;484315;246;1232;-72
2021/10/22 05:13:07;;;;;;;;;;;24.40;35.20;;;;;;484302;246;1012;-72
2021/10/22 05:15:08;;;;;;;;;;;24.40;35.10;;;;;;484288;246;1048;-72
2021/10/22 05:17:09;;;;;;;;;;;24.40;35.10;;;;;;484191;246;1129;-72
2021/10/22 05:19:11;;;;;;;;;;;24.40;35.20;;;;;;484238;246;1035;-72
2021/10/22 05:21:12;;;;;;;;;;;24.20;35.30;;;;;;484144;246;1290;-72
2021/10/22 05:23:14;;;;;;;;;;;24.30;35.30;;;;;;484169;246;2217;-72
2021/10/22 05:25:17;;;;;;;;;;;24.30;35.30;;;;;;484070;246;1135;-72
2021/10/22 05:27:17;;;;;;;;;;;24.20;35.30;;;;;;484151;246;1234;-73
2021/10/22 05:29:18;;;;;;;;;;;24.40;35.10;;;;;;484235;246;1111;-73
2021/10/22 05:31:20;;;;;;;;;;;24.40;35.00;;;;;;484195;246;1008;-73
2021/10/22 05:33:22;;;;;;;;;;;24.50;34.90;;;;;;484222;246;1144;-72
2021/10/22 05:35:23;;;;;;;;;;;24.40;34.90;;;;;;484219;246;965;-72
2021/10/22 05:37:24;;;;;;;;;;;24.40;34.90;;;;;;484117;246;1244;-72
2021/10/22 05:39:25;;;;;;;;;;;24.40;35.00;;;;;;484186;246;1060;-72
2021/10/22 05:41:27;;;;;;;;;;;24.40;35.00;;;;;;484112;246;1208;-72
2021/10/22 05:43:28;;;;;;;;;;;24.40;34.90;;;;;;483918;246;2132;-72
2021/10/22 05:45:29;;;;;;;;;;;24.40;34.80;;;;;;483925;246;1010;-72
2021/10/22 05:47:31;;;;;;;;;;;24.50;34.90;;;;;;483862;246;1155;-72
2021/10/22 05:49:32;;;;;;;;;;;24.30;35.00;;;;;;484009;246;1013;-72
2021/10/22 05:51:33;;;;;;;;;;;24.30;35.00;;;;;;484058;246;1378;-72
2021/10/22 05:53:35;;;;;;;;;;;24.40;35.00;;;;;;484100;246;1286;-73
2021/10/22 05:55:36;;;;;;;;;;;24.30;34.90;;;;;;484090;246;955;-73
2021/10/22 05:57:37;;;;;;;;;;;24.30;34.90;;;;;;484084;246;1165;-73
2021/10/22 05:59:39;;;;;;;;;;;24.40;34.90;;;;;;484078;246;1064;-73
2021/10/22 06:01:40;;;;;;;;;;;24.40;34.90;;;;;;483995;246;1067;-73
2021/10/22 06:03:41;;;;;;;;;;;24.30;34.90;;;;;;483975;246;2195;-73
2021/10/22 06:05:43;;;;;;;;;;;24.40;34.80;;;;;;484036;246;1012;-73
2021/10/22 06:07:44;;;;;;;;;;;24.40;34.80;;;;;;484154;246;1153;-73
2021/10/22 06:09:46;;;;;;;;;;;24.40;34.90;;;;;;484032;246;1058;-73
2021/10/22 06:11:49;;;;;;;;;;;24.40;34.80;;;;;;483934;246;1101;-72
2021/10/22 06:13:49;;;;;;;;;;;24.30;35.00;;;;;;483906;246;1278;-72
2021/10/22 06:15:50;;;;;;;;;;;24.20;35.00;;;;;;483901;246;1281;-72
2021/10/22 06:17:53;;;;;;;;;;;24.40;34.70;;;;;;484001;246;1161;-72
2021/10/22 06:19:56;;;;;;;;;;;24.20;35.00;;;;;;483971;245;1296;-72
2021/10/22 06:22:07;;;;;;;;;;;24.10;35.00;;;;;;483610;246;1432;-72
2021/10/22 06:24:00;;;;;;;;;;;24.20;35.00;;;;;;483124;246;2203;-73
2021/10/22 06:25:58;;;;;;;;;;;24.20;35.00;;;;;;483588;246;1399;-73
2021/10/22 06:28:00;;;;;;;;;;;24.30;34.80;;;;;;483792;246;1151;-72
2021/10/22 06:30:01;;;;;;;;;;;24.40;34.70;;;;;;483643;246;1193;-72
2021/10/22 06:32:02;;;;;;;;;;;24.50;34.60;;;;;;483651;246;1163;-73
2021/10/22 06:34:04;;;;;;;;;;;24.50;34.60;;;;;;483707;246;1127;-73
2021/10/22 06:36:06;;;;;;;;;;;24.50;34.50;;;;;;483725;246;1204;-73
2021/10/22 06:38:07;;;;;;;;;;;24.30;34.60;;;;;;484387;246;1266;-73
2021/10/22 06:40:08;;;;;;;;;;;24.20;34.80;;;;;;483818;246;983;-72
2021/10/22 06:42:10;;;;;;;;;;;24.30;35.00;;;;;;483997;246;1096;-73
2021/10/22 06:44:11;;;;;;;;;;;24.20;35.00;;;;;;483810;246;2190;-72
2021/10/22 06:46:12;;;;;;;;;;;24.30;34.80;;;;;;483708;246;1255;-72
2021/10/22 06:48:14;;;;;;;;;;;24.20;35.00;;;;;;483608;246;1020;-72
2021/10/22 06:50:16;;;;;;;;;;;24.40;34.80;;;;;;483369;246;1086;-72
2021/10/22 06:52:16;;;;;;;;;;;24.20;34.90;;;;;;484073;246;1355;-72
2021/10/22 06:54:18;;;;;;;;;;;24.30;34.80;;;;;;483896;246;1142;-72
2021/10/22 06:56:20;;;;;;;;;;;24.30;34.90;;;;;;483682;246;1353;-72
2021/10/22 06:58:21;;;;;;;;;;;24.20;35.20;;;;;;483778;246;1036;-72
2021/10/22 07:00:22;;;;;;;;;;;24.40;35.00;;;;;;483705;246;1110;-72
2021/10/22 07:02:23;;;;;;;;;;;24.40;35.00;;;;;;483574;246;1217;-72
2021/10/22 07:04:25;;;;;;;;;;;24.40;34.90;;;;;;483546;246;2208;-72
2021/10/22 07:08:45;;;;;;;;;;;24.40;34.70;;;;;;483625;246;1503;-73
2021/10/22 07:10:47;;;;;;;;;;;24.30;34.90;;;;;;483559;246;1099;-73
2021/10/22 07:12:48;;;;;;;;;;;24.30;34.80;;;;;;483513;246;1084;-73
2021/10/22 07:14:53;;;;;;;;;;;24.30;34.70;;;;;;483443;246;1075;-73
2021/10/22 07:16:51;;;;;;;;;;;24.40;34.80;;;;;;483335;246;1337;-72
2021/10/22 07:18:52;;;;;;;;;;;24.40;34.70;;;;;;483623;246;1307;-73
2021/10/22 07:20:54;;;;;;;;;;;24.50;34.60;;;;;;483606;246;1125;-73
2021/10/22 07:23:02;;;;;;;;;;;24.50;34.70;;;;;;483689;246;1432;-72
2021/10/22 07:24:56;;;;;;;;;;;24.50;34.60;;;;;;483142;246;2186;-72
2021/10/22 07:26:58;;;;;;;;;;;24.50;34.40;;;;;;483460;246;1227;-72
2021/10/22 07:28:59;;;;;;;;;;;24.50;34.50;;;;;;483465;246;1076;-73
2021/10/22 07:31:01;;;;;;;;;;;24.50;34.40;;;;;;483401;246;1073;-72
2021/10/22 07:33:02;;;;;;;;;;;24.50;34.50;;;;;;483429;246;1103;-73
2021/10/22 07:35:03;;;;;;;;;;;24.30;34.60;;;;;;483484;246;1101;-73
2021/10/22 07:37:05;;;;;;;;;;;24.50;34.50;;;;;;483412;246;1176;-73
2021/10/22 07:39:06;;;;;;;;;;;24.40;34.60;;;;;;483227;246;1092;-73
2021/10/22 07:41:07;;;;;;;;;;;24.40;34.50;;;;;;483464;246;1174;-73
2021/10/22 07:43:08;;;;;;;;;;;24.50;34.50;;;;;;483550;246;1176;-72
2021/10/22 07:45:10;;;;;;;;;;;24.60;34.40;;;;;;483611;246;2112;-73
2021/10/22 07:47:11;;;;;;;;;;;24.60;34.20;;;;;;483619;246;1104;-73
2021/10/22 07:49:12;;;;;;;;;;;24.60;34.20;;;;;;483376;246;1216;-73
2021/10/22 07:51:14;;;;;;;;;;;24.60;34.30;;;;;;483415;246;1036;-73
2021/10/22 07:53:15;;;;;;;;;;;24.40;34.50;;;;;;483515;246;1122;-73
2021/10/22 07:55:16;;;;;;;;;;;24.70;34.30;;;;;;483425;246;1223;-72
2021/10/22 07:57:18;;;;;;;;;;;24.60;34.40;;;;;;483715;246;1131;-72
2021/10/22 07:59:19;;;;;;;;;;;24.50;34.50;;;;;;484084;246;843;-68
2021/10/22 08:01:20;;;;;;;;;;;24.40;34.70;;;;;;483544;246;1449;-72
2021/10/22 08:03:22;;;;;;;;;;;24.40;34.90;;;;;;483299;246;1048;-72
2021/10/22 08:05:23;;;;;;;;;;;24.30;34.90;;;;;;483349;246;2215;-72
2021/10/22 08:07:29;;;;;;;;;;;24.00;35.30;;;;;;483817;246;1285;-72
2021/10/22 08:09:27;;;;;;;;;;;23.80;35.70;;;;;;483286;246;1447;-72
2021/10/22 08:11:28;;;;;;;;;;;23.60;36.00;;;;;;483513;243;1215;-72
2021/10/22 08:13:30;;;;;;;;;;;23.70;36.10;;;;;;483495;246;986;-72
2021/10/22 08:15:31;;;;;;;;;;;23.90;35.90;;;;;;483556;246;1054;-73
2021/10/22 08:17:32;;;;;;;;;;;24.10;35.50;;;;;;483577;246;1207;-73
2021/10/22 08:19:34;;;;;;;;;;;24.00;35.50;;;;;;484216;246;840;-72
2021/10/22 08:21:56;;;;;;;;;;;23.80;35.50;;;;;;483917;246;1371;-73
2021/10/22 08:23:46;;;;;;;;;;;23.80;35.90;;;;;;482502;246;2179;-72
2021/10/22 08:25:48;;;;;;;;;;;23.90;35.60;;;;;;483401;246;1034;-72
2021/10/22 08:27:49;;;;;;;;;;;23.90;35.70;;;;;;483624;246;1050;-72
2021/10/22 08:29:50;;;;;;;;;;;23.90;35.60;;;;;;483744;246;917;-73
2021/10/22 08:31:52;;;;;;;;;;;24.00;35.50;;;;;;483767;246;1165;-73
2021/10/22 08:33:53;;;;;;;;;;;24.00;35.60;;;;;;483986;246;922;-73
2021/10/22 08:35:55;;;;;;;;;;;23.90;35.60;;;;;;483571;246;1247;-73
2021/10/22 08:37:56;;;;;;;;;;;24.00;35.50;;;;;;483745;246;2063;-72
2021/10/22 08:39:57;;;;;;;;;;;23.90;35.70;;;;;;483521;246;1178;-72
2021/10/22 08:41:58;;;;;;;;;;;24.00;35.90;;;;;;483628;246;1234;-72
2021/10/22 08:43:59;;;;;;;;;;;24.00;36.00;;;;;;484377;246;2187;-73
2021/10/22 08:46:01;;;;;;;;;;;23.90;36.30;;;;;;483893;246;836;-73
2021/10/22 08:48:02;;;;;;;;;;;23.80;36.50;;;;;;484028;246;1055;-73
2021/10/22 08:50:03;;;;;;;;;;;24.00;36.50;;;;;;483563;246;1096;-73
2021/10/22 08:52:05;;;;;;;;;;;24.30;36.10;;;;;;483513;246;1098;-72
2021/10/22 08:54:06;;;;;;;;;;;24.30;35.90;;;;;;483459;246;1184;-72
2021/10/22 08:56:07;;;;;;;;;;;24.10;36.00;;;;;;483578;246;1107;-72
2021/10/22 08:58:09;;;;;;;;;;;23.50;37.10;;;;;;483896;246;1291;-72
2021/10/22 09:00:10;;;;;;;;;;;23.20;37.80;;;;;;484014;246;1322;-72
2021/10/22 09:02:12;;;;;;;;;;;23.00;38.30;;;;;;483604;246;1038;-71
2021/10/22 09:04:13;;;;;;;;;;;22.90;38.50;;;;;;483829;246;2171;-74
2021/10/22 09:06:15;;;;;;;;;;;22.80;38.60;;;;;;484213;241;1113;-72
2021/10/22 09:08:17;;;;;;;;;;;23.00;38.50;;;;;;483662;246;1336;-71
2021/10/22 09:10:17;;;;;;;;;;;22.90;38.60;;;;;;483407;246;1376;-72
2021/10/22 09:12:18;;;;;;;;;;;22.80;38.70;;;;;;483737;246;1103;-73
2021/10/22 09:14:20;;;;;;;;;;;22.70;39.00;;;;;;483801;246;1092;-73
2021/10/22 09:16:22;;;;;;;;;;;23.10;38.30;;;;;;483496;246;1452;-73
2021/10/22 09:18:23;;;;;;;;;;;23.40;37.70;;;;;;483459;246;1220;-73
2021/10/22 09:20:24;;;;;;;;;;;23.60;37.50;;;;;;483540;246;1282;-73
2021/10/22 09:22:25;;;;;;;;;;;23.50;37.80;;;;;;483721;246;1051;-74
2021/10/22 09:24:26;;;;;;;;;;;23.50;37.80;;;;;;483609;246;2176;-73
2021/10/22 09:26:30;;;;;;;;;;;23.50;37.80;;;;;;483381;246;1200;-73
2021/10/22 09:28:29;;;;;;;;;;;23.60;37.80;;;;;;483393;246;1402;-74
2021/10/22 09:30:30;;;;;;;;;;;23.70;37.70;;;;;;483467;246;1210;-74
2021/10/22 09:32:32;;;;;;;;;;;24.00;37.00;;;;;;483388;246;1167;-74
2021/10/22 09:34:33;;;;;;;;;;;24.30;36.50;;;;;;483494;246;1203;-74
2021/10/22 09:36:34;;;;;;;;;;;24.50;36.30;;;;;;483508;246;1306;-74
2021/10/22 09:38:36;;;;;;;;;;;24.50;36.00;;;;;;483612;246;1069;-74
2021/10/22 09:40:37;;;;;;;;;;;24.40;36.00;;;;;;483441;246;1212;-74
2021/10/22 09:42:38;;;;;;;;;;;24.50;35.80;;;;;;483442;246;1038;-74
2021/10/22 09:44:40;;;;;;;;;;;24.50;35.90;;;;;;483440;246;2180;-74
2021/10/22 09:46:41;;;;;;;;;;;24.50;35.70;;;;;;483231;246;1541;-74
2021/10/22 09:48:43;;;;;;;;;;;24.60;35.60;;;;;;483339;246;1140;-74
2021/10/22 09:50:44;;;;;;;;;;;24.50;35.60;;;;;;483447;246;1225;-74
2021/10/22 09:52:45;;;;;;;;;;;24.60;35.50;;;;;;483297;246;1105;-74
2021/10/22 09:54:47;;;;;;;;;;;24.60;35.50;;;;;;483398;246;1104;-74
2021/10/22 09:56:48;;;;;;;;;;;24.60;35.40;;;;;;483457;246;1192;-74
2021/10/22 09:58:49;;;;;;;;;;;24.50;35.50;;;;;;483712;246;1081;-74
2021/10/22 10:00:51;;;;;;;;;;;24.60;35.40;;;;;;483649;246;1095;-74
2021/10/22 10:02:52;;;;;;;;;;;24.60;35.20;;;;;;483619;246;1114;-74
2021/10/22 10:04:53;;;;;;;;;;;24.70;35.20;;;;;;483396;246;2113;-74
2021/10/22 10:06:55;;;;;;;;;;;24.70;35.00;;;;;;483522;243;1131;-74
2021/10/22 10:08:56;;;;;;;;;;;24.80;35.00;;;;;;483515;246;1098;-74
2021/10/22 10:10:57;;;;;;;;;;;24.70;35.00;;;;;;483501;246;1227;-74
2021/10/22 10:12:59;;;;;;;;;;;24.80;34.90;;;;;;483758;246;1063;-74
2021/10/22 10:15:00;;;;;;;;;;;24.70;34.90;;;;;;483545;246;994;-74
2021/10/22 10:17:02;;;;;;;;;;;24.70;34.90;;;;;;483447;246;1384;-74
2021/10/22 10:19:03;;;;;;;;;;;24.80;34.80;;;;;;483497;246;1081;-74
2021/10/22 10:21:05;;;;;;;;;;;24.80;34.70;;;;;;483490;246;1123;-74
2021/10/22 10:23:06;;;;;;;;;;;24.80;34.70;;;;;;483703;246;1168;-74
2021/10/22 10:25:07;;;;;;;;;;;24.80;34.60;;;;;;483591;246;2190;-74
2021/10/22 10:27:09;;;;;;;;;;;24.80;34.60;;;;;;483673;246;1232;-74
2021/10/22 10:29:10;;;;;;;;;;;24.80;34.30;;;;;;483696;246;1027;-74
2021/10/22 10:31:11;;;;;;;;;;;24.90;34.30;;;;;;483725;246;1371;-74
2021/10/22 10:33:13;;;;;;;;;;;24.90;34.30;;;;;;483691;246;1114;-74
2021/10/22 10:35:14;;;;;;;;;;;24.90;34.20;;;;;;483773;246;1172;-74
2021/10/22 10:37:15;;;;;;;;;;;24.90;34.00;;;;;;483863;246;1134;-75
2021/10/22 10:39:17;;;;;;;;;;;25.00;33.80;;;;;;483779;246;1292;-74
2021/10/22 10:41:18;;;;;;;;;;;24.90;33.90;;;;;;483593;246;1244;-74
2021/10/22 10:43:19;;;;;;;;;;;24.90;33.80;;;;;;483529;246;1119;-74
2021/10/22 10:45:20;;;;;;;;;;;24.90;33.80;;;;;;483564;246;2208;-74
2021/10/22 10:47:22;;;;;;;;;;;25.00;33.70;;;;;;483503;246;1349;-74
2021/10/22 10:49:23;;;;;;;;;;;25.00;33.60;;;;;;483547;246;1104;-74
2021/10/22 10:51:24;;;;;;;;;;;25.00;33.60;;;;;;483570;246;1120;-74
2021/10/22 10:53:26;;;;;;;;;;;24.90;33.60;;;;;;483752;246;1088;-74
2021/10/22 10:55:28;;;;;;;;;;;25.00;33.60;;;;;;483587;246;1229;-74
2021/10/22 10:57:29;;;;;;;;;;;24.90;33.50;;;;;;483403;246;1394;-74
2021/10/22 10:59:30;;;;;;;;;;;25.00;33.50;;;;;;483588;246;1087;-74
2021/10/22 11:01:34;;;;;;;;;;;24.90;33.40;;;;;;483561;246;1237;-74
2021/10/22 11:03:33;;;;;;;;;;;24.90;33.20;;;;;;484170;246;1316;-74
2021/10/22 11:05:34;;;;;;;;;;;24.90;33.20;;;;;;484505;246;2191;-74
2021/10/22 11:07:35;;;;;;;;;;;24.80;33.20;;;;;;484088;246;1053;-74
2021/10/22 11:09:37;;;;;;;;;;;24.40;33.60;;;;;;484391;246;841;-74
2021/10/22 11:11:38;;;;;;;;;;;24.10;33.90;;;;;;483899;246;1540;-74
2021/10/22 11:13:39;;;;;;;;;;;24.00;34.20;;;;;;484535;246;977;-74
2021/10/22 11:15:40;;;;;;;;;;;23.90;34.20;;;;;;484367;246;1210;-74
2021/10/22 11:17:42;;;;;;;;;;;24.20;34.00;;;;;;483774;246;1080;-74
2021/10/22 11:19:44;;;;;;;;;;;24.10;33.80;;;;;;483681;246;1476;-74
2021/10/22 11:21:45;;;;;;;;;;;24.00;34.00;;;;;;483801;246;1773;-74
2021/10/22 11:23:46;;;;;;;;;;;23.80;34.30;;;;;;483481;246;1245;-73
2021/10/22 11:25:47;;;;;;;;;;;23.80;34.20;;;;;;483928;246;2112;-74
2021/10/22 11:27:49;;;;;;;;;;;23.90;34.00;;;;;;483648;246;1070;-74
2021/10/22 11:29:50;;;;;;;;;;;23.90;34.30;;;;;;483563;246;1042;-73
2021/10/22 11:31:52;;;;;;;;;;;23.80;34.00;;;;;;483575;246;1079;-74
2021/10/22 11:33:52;;;;;;;;;;;23.90;34.20;;;;;;483272;246;1444;-74
2021/10/22 11:35:54;;;;;;;;;;;23.80;34.10;;;;;;483323;246;1388;-73
2021/10/22 11:37:55;;;;;;;;;;;24.10;33.80;;;;;;483589;246;1154;-73
2021/10/22 11:39:57;;;;;;;;;;;23.80;33.80;;;;;;483482;246;1190;-74
2021/10/22 11:41:58;;;;;;;;;;;23.70;34.10;;;;;;483512;246;1187;-73
2021/10/22 11:43:59;;;;;;;;;;;23.70;33.90;;;;;;483415;246;1035;-74
2021/10/22 11:46:01;;;;;;;;;;;24.00;34.00;;;;;;483392;246;2176;-73
2021/10/22 11:48:02;;;;;;;;;;;23.80;33.80;;;;;;483377;246;1130;-73
2021/10/22 11:50:03;;;;;;;;;;;23.90;33.80;;;;;;483416;246;1048;-74
2021/10/22 11:52:05;;;;;;;;;;;24.00;33.50;;;;;;483551;246;1588;-73
2021/10/22 11:54:06;;;;;;;;;;;23.80;33.90;;;;;;483411;246;1082;-74
2021/10/22 11:56:08;;;;;;;;;;;24.30;33.50;;;;;;483314;246;1539;-74
2021/10/22 11:58:09;;;;;;;;;;;24.50;32.90;;;;;;483518;246;1038;-74
2021/10/22 12:00:10;;;;;;;;;;;24.70;32.60;;;;;;483201;246;1012;-74
2021/10/22 12:02:12;;;;;;;;;;;24.70;32.50;;;;;;483324;246;1126;-74